Time;durP1;ratioP1;P1;durP2;ratioP2;P2;SDS_P1;SDS_P2;PMS_P1;PMS_P2;Temp;Humidity;BMP_temperature;BMP_pressure;BME280_temperature;BME280_humidity;BME280_pressure;Samples;Min_cycle;Max_cycle;Signal;HPM_P1;HPM_P2
2022/04/19 00:01:53;;;;;;;10.02;4.63;;;10.70;99.90;;;;;;5073428;28;20404;-68
2022/04/19 00:04:20;;;;;;;10.13;3.90;;;10.60;99.90;;;;;;5073789;28;20483;-68
2022/04/19 00:06:47;;;;;;;10.30;3.97;;;10.60;99.90;;;;;;5074037;28;20055;-68
2022/04/19 00:09:17;;;;;;;9.82;3.55;;;10.60;99.90;;;;;;5074046;28;20050;-67
2022/04/19 00:11:44;;;;;;;7.93;3.92;;;10.60;99.90;;;;;;5074296;28;20110;-67
2022/04/19 00:14:10;;;;;;;11.02;5.05;;;10.50;99.90;;;;;;5054723;28;20049;-67
2022/04/19 00:16:38;;;;;;;8.00;3.72;;;10.50;99.90;;;;;;5073888;28;20495;-67
2022/04/19 00:19:06;;;;;;;10.10;4.35;;;10.40;99.90;;;;;;5072447;28;20044;-67
2022/04/19 00:21:33;;;;;;;7.18;3.65;;;10.40;99.90;;;;;;5072931;28;20407;-67
2022/04/19 00:24:00;;;;;;;6.95;3.97;;;10.30;99.90;;;;;;5073476;28;20052;-67
2022/04/19 00:26:26;;;;;;;9.98;4.57;;;10.30;99.90;;;;;;5071994;28;20507;-68
2022/04/19 00:28:53;;;;;;;9.20;4.60;;;10.20;99.90;;;;;;5072344;28;20511;-69
2022/04/19 00:31:20;;;;;;;11.35;4.80;;;10.20;99.90;;;;;;5073479;28;20060;-69
2022/04/19 00:33:47;;;;;;;8.75;3.70;;;10.10;99.90;;;;;;5055892;28;20502;-68
2022/04/19 00:36:14;;;;;;;12.88;3.78;;;10.10;99.90;;;;;;5077764;28;20048;-68
2022/04/19 00:38:41;;;;;;;6.78;3.47;;;10.10;99.90;;;;;;5080371;28;20055;-68
2022/04/19 00:41:08;;;;;;;6.93;3.55;;;10.00;99.90;;;;;;5072371;28;20052;-69
2022/04/19 00:43:35;;;;;;;6.43;3.40;;;10.00;99.90;;;;;;5087865;28;20506;-68
2022/04/19 00:46:02;;;;;;;7.97;4.30;;;10.00;99.90;;;;;;5071756;28;20045;-68
2022/04/19 00:48:29;;;;;;;5.55;3.10;;;9.90;99.90;;;;;;5073404;28;20048;-68
2022/04/19 00:50:56;;;;;;;9.13;4.07;;;9.90;99.90;;;;;;5072740;28;20551;-69
2022/04/19 00:53:23;;;;;;;8.07;3.65;;;9.90;99.90;;;;;;5073673;28;20037;-68
2022/04/19 00:55:56;;;;;;;8.25;4.00;;;9.80;99.90;;;;;;5077377;28;20185;-68
2022/04/19 00:58:22;;;;;;;5.07;3.50;;;9.70;99.90;;;;;;5070947;28;20053;-68
2022/04/19 01:00:50;;;;;;;6.75;3.55;;;9.70;99.90;;;;;;5071486;28;20045;-68
2022/04/19 01:03:17;;;;;;;10.05;4.15;;;9.70;99.90;;;;;;5072360;28;20491;-68
2022/04/19 01:05:45;;;;;;;5.63;3.08;;;9.70;99.90;;;;;;5070897;28;20047;-68
2022/04/19 01:08:12;;;;;;;9.80;4.00;;;9.70;99.90;;;;;;5069277;28;20484;-68
2022/04/19 01:10:39;;;;;;;8.00;3.53;;;9.60;99.90;;;;;;5072609;28;20052;-69
2022/04/19 01:13:18;;;;;;;6.43;3.72;;;9.60;99.90;;;;;;5054414;28;20483;-68
2022/04/19 01:15:49;;;;;;;12.20;3.47;;;9.50;99.90;;;;;;5070900;28;20064;-68
2022/04/19 01:18:24;;;;;;;8.38;3.53;;;9.50;99.90;;;;;;5071997;28;20117;-69
2022/04/19 01:20:52;;;;;;;5.63;3.10;;;9.50;99.90;;;;;;5071379;28;20052;-68
2022/04/19 01:23:20;;;;;;;6.78;3.55;;;9.50;99.90;;;;;;5071478;28;20094;-69
2022/04/19 01:25:47;;;;;;;9.27;4.05;;;9.40;99.90;;;;;;5056218;28;20087;-69
2022/04/19 01:28:15;;;;;;;8.20;3.08;;;9.40;99.90;;;;;;5072089;28;20067;-69
2022/04/19 01:30:45;;;;;;;8.18;3.50;;;9.40;99.90;;;;;;5059116;28;20098;-69
2022/04/19 01:33:11;;;;;;;9.40;4.13;;;9.30;99.90;;;;;;5070769;28;20040;-69
2022/04/19 01:35:39;;;;;;;7.07;4.07;;;9.30;99.90;;;;;;5071329;28;20542;-69
2022/04/19 01:38:06;;;;;;;11.38;4.90;;;9.30;99.90;;;;;;5071505;28;20048;-69
2022/04/19 01:40:33;;;;;;;8.80;4.00;;;9.30;99.90;;;;;;5069912;28;20051;-69
2022/04/19 01:43:01;;;;;;;6.20;3.63;;;9.20;99.90;;;;;;5071640;28;20060;-69
2022/04/19 01:45:32;;;;;;;6.97;4.35;;;9.20;99.90;;;;;;5053825;28;20063;-69
2022/04/19 01:48:00;;;;;;;6.07;3.33;;;9.10;99.90;;;;;;5069890;28;20411;-69
2022/04/19 01:50:28;;;;;;;10.40;4.25;;;9.10;99.90;;;;;;5070646;28;20063;-69
2022/04/19 01:52:56;;;;;;;5.85;3.83;;;9.00;99.90;;;;;;5071845;28;20044;-69
2022/04/19 01:55:23;;;;;;;6.85;4.15;;;8.90;99.90;;;;;;5070264;28;20384;-69
2022/04/19 01:57:56;;;;;;;8.25;3.58;;;8.90;99.90;;;;;;5069401;28;20047;-69
2022/04/19 02:00:24;;;;;;;7.00;3.50;;;8.90;99.90;;;;;;5044530;28;20045;-69
2022/04/19 02:02:52;;;;;;;11.05;3.60;;;8.90;99.90;;;;;;5066575;28;20483;-68
2022/04/19 02:05:19;;;;;;;9.52;3.63;;;8.90;99.90;;;;;;5070176;28;20404;-69
2022/04/19 02:07:46;;;;;;;8.82;4.00;;;8.80;99.90;;;;;;5069919;28;20410;-70
2022/04/19 02:10:14;;;;;;;6.13;3.28;;;8.80;99.90;;;;;;5070616;28;20049;-69
2022/04/19 02:12:41;;;;;;;8.85;3.90;;;8.80;99.90;;;;;;5053374;28;20068;-69
2022/04/19 02:15:08;;;;;;;6.43;3.92;;;8.80;99.90;;;;;;5055100;28;20487;-69
2022/04/19 02:17:48;;;;;;;11.60;3.75;;;8.80;99.90;;;;;;5051736;28;20049;-69
2022/04/19 02:20:16;;;;;;;8.52;3.90;;;8.80;99.90;;;;;;5060136;28;20044;-70
2022/04/19 02:22:43;;;;;;;4.90;3.55;;;8.80;99.90;;;;;;5065254;28;20064;-69
2022/04/19 02:25:13;;;;;;;9.50;3.35;;;8.90;99.90;;;;;;5056540;28;20057;-69
2022/04/19 02:27:41;;;;;;;5.53;2.70;;;8.90;99.90;;;;;;5059739;28;20049;-69
2022/04/19 02:30:13;;;;;;;7.45;3.13;;;8.90;99.90;;;;;;5075259;28;20045;-69
2022/04/19 02:32:44;;;;;;;6.18;3.70;;;8.80;99.90;;;;;;5069254;28;20483;-69
2022/04/19 02:35:14;;;;;;;9.90;3.92;;;8.80;99.90;;;;;;5069447;28;20487;-69
2022/04/19 02:37:51;;;;;;;7.45;3.63;;;8.80;99.90;;;;;;5070688;28;20048;-68
2022/04/19 02:40:19;;;;;;;9.93;3.28;;;8.80;99.90;;;;;;5072152;28;20045;-68
2022/04/19 02:42:46;;;;;;;5.50;3.28;;;8.70;99.90;;;;;;5069388;28;20044;-69
2022/04/19 02:45:13;;;;;;;8.70;3.38;;;8.70;99.90;;;;;;5069734;28;20154;-69
2022/04/19 02:47:43;;;;;;;6.22;3.38;;;8.70;99.90;;;;;;5070518;28;20056;-69
2022/04/19 02:50:10;;;;;;;5.93;3.55;;;8.70;99.90;;;;;;5069618;28;20123;-69
2022/04/19 02:52:37;;;;;;;7.95;4.15;;;8.60;99.90;;;;;;5070085;28;20053;-70
2022/04/19 02:55:04;;;;;;;9.13;3.53;;;8.60;99.90;;;;;;5069812;28;20063;-69
2022/04/19 02:57:32;;;;;;;6.50;3.78;;;8.50;99.90;;;;;;5069812;28;20395;-69
2022/04/19 02:59:59;;;;;;;5.15;2.80;;;8.50;99.90;;;;;;5068763;28;20052;-69
2022/04/19 03:02:26;;;;;;;8.70;3.95;;;8.40;99.90;;;;;;5069764;28;20068;-70
2022/04/19 03:04:53;;;;;;;6.93;3.90;;;8.40;99.90;;;;;;5071566;28;20135;-69
2022/04/19 03:07:20;;;;;;;6.38;4.15;;;8.40;99.90;;;;;;5069599;28;20052;-69
2022/04/19 03:09:47;;;;;;;7.10;3.83;;;8.30;99.90;;;;;;5072501;28;20055;-69
2022/04/19 03:12:15;;;;;;;6.45;3.90;;;8.30;99.90;;;;;;5071082;28;20047;-69
2022/04/19 03:14:42;;;;;;;7.60;3.70;;;8.30;99.90;;;;;;5075329;28;20055;-69
2022/04/19 03:17:08;;;;;;;6.63;3.97;;;8.20;99.90;;;;;;5072973;28;20533;-69
2022/04/19 03:19:36;;;;;;;8.57;4.35;;;8.20;99.90;;;;;;5074738;28;20067;-69
2022/04/19 03:22:03;;;;;;;8.35;3.40;;;8.10;99.90;;;;;;5073781;28;20059;-69
2022/04/19 03:30:02;;;;;;;7.43;4.07;;;8.00;99.90;;;;;;5074031;28;20055;-69
2022/04/19 03:32:30;;;;;;;10.32;4.95;;;7.90;99.90;;;;;;5074719;28;20044;-69
2022/04/19 03:35:23;;;;;;;9.02;4.22;;;7.90;99.90;;;;;;5018144;28;20046;-69
2022/04/19 03:38:36;;;;;;;7.80;3.05;;;7.80;99.90;;;;;;5014600;28;20080;-70
2022/04/19 03:41:03;;;;;;;7.80;3.17;;;7.80;99.90;;;;;;5028903;28;20087;-70
2022/04/19 03:43:32;;;;;;;6.57;4.05;;;7.80;99.90;;;;;;5014971;28;20056;-69
2022/04/19 03:46:00;;;;;;;6.82;3.45;;;7.70;99.90;;;;;;5031463;28;20136;-69
2022/04/19 03:48:29;;;;;;;5.45;3.20;;;7.70;99.90;;;;;;5015074;28;20510;-69
2022/04/19 03:50:56;;;;;;;7.88;4.15;;;7.70;99.90;;;;;;5015279;28;20054;-70
2022/04/19 03:53:23;;;;;;;5.80;3.58;;;7.60;99.90;;;;;;5032350;28;20397;-70
2022/04/19 03:55:50;;;;;;;7.60;4.07;;;7.60;99.90;;;;;;5032056;28;20041;-71
2022/04/19 03:58:17;;;;;;;7.35;4.22;;;7.60;99.90;;;;;;5031244;28;20061;-69
2022/04/19 04:00:44;;;;;;;10.80;3.53;;;7.50;99.90;;;;;;5031054;28;20476;-71
2022/04/19 04:03:11;;;;;;;10.68;4.43;;;7.50;99.90;;;;;;5014729;28;20045;-70
2022/04/19 04:05:38;;;;;;;9.48;4.47;;;7.50;99.90;;;;;;5044439;28;20048;-70
2022/04/19 04:08:06;;;;;;;10.80;3.75;;;7.50;99.90;;;;;;5072587;28;20071;-70
2022/04/19 04:10:32;;;;;;;5.43;3.00;;;7.60;99.90;;;;;;5072485;28;20089;-69
2022/04/19 04:13:00;;;;;;;8.68;4.95;;;7.50;99.90;;;;;;5073281;28;20052;-70
2022/04/19 04:15:27;;;;;;;9.75;4.03;;;7.60;99.90;;;;;;5072095;28;20087;-70
2022/04/19 04:17:54;;;;;;;8.52;4.05;;;7.60;99.90;;;;;;5073465;28;20048;-69
2022/04/19 04:20:21;;;;;;;7.18;3.97;;;7.60;99.90;;;;;;5072170;28;20067;-69
2022/04/19 04:22:48;;;;;;;8.02;3.17;;;7.60;99.90;;;;;;5072108;28;20052;-70
2022/04/19 04:25:17;;;;;;;6.13;3.55;;;7.60;99.90;;;;;;5072195;28;20094;-70
2022/04/19 04:27:44;;;;;;;9.68;4.13;;;7.60;99.90;;;;;;5073483;28;20049;-69
2022/04/19 04:30:12;;;;;;;6.93;4.13;;;7.60;99.90;;;;;;5071861;28;20052;-70
2022/04/19 04:32:38;;;;;;;7.28;3.58;;;7.60;99.90;;;;;;5072107;28;20048;-69
2022/04/19 04:35:06;;;;;;;8.45;4.15;;;7.60;99.90;;;;;;5073521;28;20045;-70
2022/04/19 04:37:33;;;;;;;9.57;4.40;;;7.60;99.90;;;;;;5072622;28;20480;-69
2022/04/19 04:40:00;;;;;;;6.32;3.85;;;7.60;99.90;;;;;;5072000;28;20047;-69
2022/04/19 04:42:27;;;;;;;5.00;3.05;;;7.50;99.90;;;;;;5055320;28;20056;-69
2022/04/19 04:44:54;;;;;;;6.97;3.90;;;7.60;99.90;;;;;;5072439;28;20045;-69
2022/04/19 04:50:08;;;;;;;4.75;2.95;;;7.50;99.90;;;;;;5072482;28;20048;-69
2022/04/19 04:52:35;;;;;;;10.02;3.75;;;7.50;99.90;;;;;;5072233;28;20585;-69
2022/04/19 04:55:05;;;;;;;8.68;3.58;;;7.50;99.90;;;;;;5072597;28;20055;-70
2022/04/19 04:57:31;;;;;;;7.05;3.92;;;7.50;99.90;;;;;;5078260;28;20062;-69
2022/04/19 04:59:58;;;;;;;8.30;4.10;;;7.50;99.90;;;;;;5073002;28;20051;-69
2022/04/19 05:02:25;;;;;;;9.15;3.88;;;7.50;99.90;;;;;;5071659;28;20101;-70
2022/04/19 05:04:52;;;;;;;10.73;4.00;;;7.50;99.90;;;;;;5071515;28;20115;-70
2022/04/19 05:07:20;;;;;;;6.03;3.45;;;7.50;99.90;;;;;;5070657;28;21662;-69
2022/04/19 05:09:54;;;;;;;6.53;3.40;;;7.50;99.90;;;;;;5071912;28;20052;-69
2022/04/19 05:12:21;;;;;;;8.48;3.85;;;7.60;99.90;;;;;;5054226;28;20512;-69
2022/04/19 05:14:48;;;;;;;6.72;3.65;;;7.60;99.90;;;;;;5070554;28;20079;-69
2022/04/19 05:17:14;;;;;;;7.80;4.03;;;7.60;99.90;;;;;;5056394;28;20044;-69
2022/04/19 05:19:41;;;;;;;11.43;4.35;;;7.60;99.90;;;;;;5071009;28;20051;-69
2022/04/19 05:22:09;;;;;;;11.75;4.90;;;7.60;99.90;;;;;;5067911;28;20078;-69
2022/04/19 05:24:36;;;;;;;7.95;3.97;;;7.60;99.90;;;;;;5071464;28;20056;-68
2022/04/19 05:27:06;;;;;;;7.68;4.22;;;7.60;99.90;;;;;;5070809;28;20545;-69
2022/04/19 05:29:33;;;;;;;7.43;4.45;;;7.60;99.90;;;;;;5072105;28;20055;-69
2022/04/19 05:32:00;;;;;;;13.93;6.35;;;7.60;99.90;;;;;;5070317;28;20049;-69
2022/04/19 05:34:27;;;;;;;8.07;4.30;;;7.70;99.90;;;;;;5071357;28;20449;-69
2022/04/19 05:36:54;;;;;;;6.88;3.80;;;7.70;99.90;;;;;;5071561;28;20055;-68
2022/04/19 05:39:20;;;;;;;9.30;3.50;;;7.70;99.90;;;;;;5070493;28;20044;-69
2022/04/19 05:41:47;;;;;;;8.85;5.15;;;7.80;99.90;;;;;;5070818;28;20055;-67
2022/04/19 05:44:14;;;;;;;23.10;16.02;;;7.80;99.90;;;;;;5071999;28;20066;-67
2022/04/19 05:46:41;;;;;;;25.75;15.35;;;7.80;99.90;;;;;;5071597;28;20044;-67
2022/04/19 05:49:12;;;;;;;14.30;7.40;;;7.90;99.90;;;;;;5069240;28;20046;-71
2022/04/19 05:51:42;;;;;;;9.77;4.88;;;7.90;99.90;;;;;;5068014;28;20052;-74
2022/04/19 05:54:09;;;;;;;7.03;4.68;;;8.00;99.90;;;;;;5065431;28;20045;-75
2022/04/19 05:56:36;;;;;;;10.13;5.32;;;8.00;99.90;;;;;;5055244;28;20044;-67
2022/04/19 05:59:03;;;;;;;7.88;4.10;;;8.10;99.90;;;;;;5069583;28;20049;-74
2022/04/19 06:04:51;;;;;;;5.97;4.28;;;8.10;99.90;;;;;;5069059;28;20496;-78
2022/04/19 06:07:02;;;;;;;10.02;4.60;;;8.20;99.90;;;;;;5069245;28;20056;-72
2022/04/19 06:09:29;;;;;;;91.60;61.55;;;8.20;99.90;;;;;;5067453;28;20098;-76
2022/04/19 06:11:56;;;;;;;32.75;21.30;;;8.30;99.90;;;;;;5067670;28;20049;-76
2022/04/19 06:14:22;;;;;;;15.70;8.45;;;8.20;99.90;;;;;;5068851;28;20509;-76
2022/04/19 06:16:49;;;;;;;12.13;6.88;;;8.30;99.90;;;;;;5067305;28;20812;-77
2022/04/19 06:19:16;;;;;;;14.57;6.70;;;8.30;99.90;;;;;;5068654;28;20036;-77
2022/04/19 06:21:45;;;;;;;11.32;5.32;;;8.40;99.90;;;;;;5069606;28;20045;-78
2022/04/19 06:24:11;;;;;;;12.95;5.43;;;8.30;99.90;;;;;;5070019;28;20056;-77
2022/04/19 06:26:39;;;;;;;10.95;5.03;;;8.40;99.90;;;;;;5067804;28;20513;-76
2022/04/19 06:29:06;;;;;;;9.55;4.65;;;8.40;99.90;;;;;;5068231;28;20054;-76
2022/04/19 06:31:33;;;;;;;12.90;6.68;;;8.40;99.90;;;;;;5068184;28;20068;-75
2022/04/19 06:34:00;;;;;;;8.13;4.95;;;8.40;99.90;;;;;;5069111;28;20135;-76
2022/04/19 06:36:27;;;;;;;8.77;4.53;;;8.50;99.90;;;;;;5069129;28;20094;-76
2022/04/19 06:38:54;;;;;;;11.35;4.43;;;8.50;99.90;;;;;;5068463;28;20052;-76
2022/04/19 06:41:21;;;;;;;11.32;4.90;;;8.50;99.90;;;;;;5067794;28;20511;-76
2022/04/19 06:43:48;;;;;;;12.50;5.65;;;8.60;99.90;;;;;;5073832;28;20055;-76
2022/04/19 06:46:18;;;;;;;10.13;4.65;;;8.60;99.90;;;;;;5071441;28;20045;-76
2022/04/19 06:48:45;;;;;;;10.88;6.07;;;8.70;99.90;;;;;;5056001;28;20048;-76
2022/04/19 06:51:11;;;;;;;8.70;5.22;;;8.70;99.90;;;;;;5072902;28;20049;-76
2022/04/19 06:53:58;;;;;;;8.13;4.65;;;8.80;99.90;;;;;;5072251;28;20068;-69
2022/04/19 06:56:25;;;;;;;9.77;5.30;;;8.80;99.90;;;;;;5072474;28;20052;-68
2022/04/19 06:58:51;;;;;;;10.98;5.93;;;8.90;99.90;;;;;;5073437;28;20098;-69
2022/04/19 07:01:18;;;;;;;7.35;5.53;;;9.00;99.90;;;;;;5072792;28;20048;-68
2022/04/19 07:03:45;;;;;;;11.23;6.00;;;9.10;99.90;;;;;;5071899;28;20084;-70
2022/04/19 07:06:14;;;;;;;9.85;5.47;;;9.20;99.90;;;;;;5086778;28;20078;-73
2022/04/19 07:08:41;;;;;;;9.65;4.85;;;9.40;99.90;;;;;;5073813;28;20056;-69
2022/04/19 07:11:11;;;;;;;8.55;4.63;;;9.50;99.90;;;;;;5074517;28;20586;-70
2022/04/19 07:13:41;;;;;;;14.68;6.57;;;9.60;99.90;;;;;;5056565;28;20048;-71
2022/04/19 07:16:08;;;;;;;10.68;6.25;;;9.70;99.90;;;;;;5073871;28;20044;-71
2022/04/19 07:18:35;;;;;;;26.20;19.23;;;9.80;99.90;;;;;;5073095;28;20048;-71
2022/04/19 07:26:47;;;;;;;11.45;6.18;;;10.10;99.90;;;;;;5073531;28;20059;-70
2022/04/19 07:29:18;;;;;;;12.63;6.03;;;10.20;99.90;;;;;;5089039;28;20055;-70
2022/04/19 07:31:46;;;;;;;16.58;7.43;;;10.40;99.90;;;;;;5073484;28;20045;-70
2022/04/19 07:34:13;;;;;;;13.95;6.38;;;10.40;99.90;;;;;;5072899;28;20044;-70
2022/04/19 07:36:40;;;;;;;10.98;6.75;;;10.50;99.90;;;;;;5073431;28;20402;-73
2022/04/19 07:39:11;;;;;;;9.68;6.50;;;10.70;99.90;;;;;;5072276;28;20057;-72
2022/04/19 07:41:38;;;;;;;12.95;6.53;;;10.70;99.90;;;;;;5072926;28;20049;-72
2022/04/19 07:44:05;;;;;;;11.63;7.18;;;10.90;99.90;;;;;;5072302;28;20044;-72
2022/04/19 07:46:33;;;;;;;10.40;6.18;;;11.00;99.90;;;;;;5089599;28;20054;-72
2022/04/19 07:49:00;;;;;;;13.35;6.85;;;11.10;99.90;;;;;;5073270;28;20098;-71
2022/04/19 07:51:27;;;;;;;14.73;6.85;;;11.30;99.90;;;;;;5073047;28;20061;-71
2022/04/19 07:53:54;;;;;;;13.10;8.77;;;11.40;99.90;;;;;;5088095;28;20040;-71
2022/04/19 07:56:20;;;;;;;10.02;6.75;;;11.50;99.90;;;;;;5073199;28;20047;-70
2022/04/19 07:58:47;;;;;;;12.52;8.75;;;11.70;99.90;;;;;;5055404;28;20053;-72
2022/04/19 08:01:15;;;;;;;12.30;7.32;;;11.80;99.90;;;;;;5072479;28;20044;-73
2022/04/19 08:03:42;;;;;;;14.90;7.43;;;11.90;99.90;;;;;;5073576;28;20127;-71
2022/04/19 08:06:09;;;;;;;11.52;7.95;;;12.00;99.90;;;;;;5072040;28;20051;-69
2022/04/19 08:08:36;;;;;;;12.70;8.02;;;12.00;99.90;;;;;;5073538;28;20048;-69
2022/04/19 08:11:03;;;;;;;12.07;7.47;;;12.20;99.90;;;;;;5072888;28;20041;-70
2022/04/19 08:13:33;;;;;;;15.68;7.10;;;12.20;99.90;;;;;;5073950;28;20048;-71
2022/04/19 08:16:00;;;;;;;19.77;8.38;;;12.30;99.90;;;;;;5073498;28;20068;-69
2022/04/19 08:18:27;;;;;;;19.33;9.15;;;12.30;99.90;;;;;;5073751;28;20127;-69
2022/04/19 08:20:54;;;;;;;14.75;8.55;;;12.40;99.90;;;;;;5072219;28;20052;-68
2022/04/19 08:23:21;;;;;;;52.58;37.55;;;12.40;99.90;;;;;;5072012;28;20045;-70
2022/04/19 08:25:48;;;;;;;21.48;14.40;;;12.40;99.90;;;;;;5070638;28;20052;-71
2022/04/19 08:28:15;;;;;;;14.73;9.10;;;12.50;99.90;;;;;;5054702;28;20041;-70
2022/04/19 08:30:42;;;;;;;14.00;8.15;;;12.60;99.90;;;;;;5073145;28;20048;-70
2022/04/19 08:33:09;;;;;;;16.48;9.05;;;12.60;99.90;;;;;;5072171;28;20109;-75
2022/04/19 08:35:36;;;;;;;15.13;9.35;;;12.60;99.90;;;;;;5054616;28;20056;-70
2022/04/19 08:38:03;;;;;;;19.85;8.75;;;12.60;99.90;;;;;;5072076;28;20045;-72
2022/04/19 08:40:32;;;;;;;15.85;8.63;;;12.70;99.90;;;;;;5069067;28;20044;-70
2022/04/19 08:43:00;;;;;;;17.00;8.45;;;12.80;99.90;;;;;;5087610;28;20043;-70
2022/04/19 08:45:27;;;;;;;26.52;10.00;;;12.90;99.90;;;;;;5070799;28;20441;-70
2022/04/19 08:47:58;;;;;;;;;;;13.00;99.90;;;;;;5071195;28;20048;-75
2022/04/19 08:50:25;;;;;;;101.45;77.13;;;13.10;99.90;;;;;;5068208;28;19920;-67
2022/04/19 08:58:23;;;;;;;15.43;9.35;;;13.50;99.90;;;;;;5051984;28;20053;-69
2022/04/19 09:00:49;;;;;;;12.82;9.00;;;13.50;99.90;;;;;;5052267;28;20475;-69
2022/04/19 09:03:18;;;;;;;13.80;8.65;;;13.50;99.90;;;;;;5050890;28;20067;-69
2022/04/19 09:05:50;;;;;;;13.75;8.95;;;13.60;99.90;;;;;;5066997;28;20076;-68
2022/04/19 09:08:18;;;;;;;14.68;9.32;;;13.70;99.90;;;;;;5060700;28;20048;-69
2022/04/19 09:10:45;;;;;;;15.57;9.30;;;13.80;99.90;;;;;;5053363;28;20053;-68
2022/04/19 09:13:14;;;;;;;16.20;9.57;;;13.90;99.90;;;;;;5053123;28;20057;-68
2022/04/19 09:15:42;;;;;;;17.55;10.85;;;13.90;99.90;;;;;;5067781;28;20041;-68
2022/04/19 09:18:26;;;;;;;20.73;9.88;;;14.10;99.90;;;;;;5062749;28;20056;-68
2022/04/19 09:20:53;;;;;;;16.45;10.55;;;14.20;99.90;;;;;;5066896;28;20106;-68
2022/04/19 09:23:20;;;;;;;18.38;10.60;;;14.30;99.90;;;;;;5068097;28;20045;-68
2022/04/19 09:25:51;;;;;;;15.60;9.90;;;14.50;99.90;;;;;;5079708;28;20488;-69
2022/04/19 09:28:20;;;;;;;17.42;10.07;;;14.60;98.80;;;;;;5081596;28;20082;-68
2022/04/19 09:30:56;;;;;;;17.45;11.02;;;14.60;98.10;;;;;;5070879;28;20048;-68
2022/04/19 09:33:27;;;;;;;16.60;11.13;;;14.60;97.70;;;;;;5060362;28;20033;-68
2022/04/19 09:35:58;;;;;;;16.90;11.32;;;14.50;98.30;;;;;;5071291;28;20138;-68
2022/04/19 09:38:36;;;;;;;17.73;11.63;;;14.60;97.50;;;;;;5053388;28;20045;-68
2022/04/19 09:41:07;;;;;;;18.40;10.73;;;14.60;97.50;;;;;;5068125;28;20097;-68
2022/04/19 09:44:11;;;;;;;15.82;11.18;;;14.60;97.20;;;;;;5064776;28;20119;-67
2022/04/19 09:46:38;;;;;;;19.00;11.45;;;14.50;95.80;;;;;;5063862;28;20055;-68
2022/04/19 09:49:06;;;;;;;16.52;9.38;;;14.40;96.60;;;;;;5068809;28;20123;-68
2022/04/19 09:51:34;;;;;;;15.85;10.30;;;14.40;97.00;;;;;;5060806;28;20056;-67
2022/04/19 09:54:01;;;;;;;18.45;11.43;;;14.50;96.50;;;;;;5071796;28;20131;-67
2022/04/19 09:56:35;;;;;;;17.27;10.98;;;14.40;96.20;;;;;;5072096;28;20049;-68
2022/04/19 09:59:17;;;;;;;;;;;14.50;95.00;;;;;;5071221;28;20051;-68
2022/04/19 10:10:03;;;;;;;17.08;11.30;;;14.80;96.60;;;;;;5071072;28;20056;-66
2022/04/19 10:12:31;;;;;;;19.83;10.52;;;14.90;95.40;;;;;;5070959;28;20052;-66
2022/04/19 10:14:59;;;;;;;16.67;12.27;;;14.90;94.80;;;;;;5070799;28;20491;-67
2022/04/19 10:17:26;;;;;;;19.60;11.43;;;15.00;93.80;;;;;;5069845;28;20056;-66
2022/04/19 10:19:53;;;;;;;15.00;11.38;;;15.00;93.10;;;;;;5069418;28;20051;-66
2022/04/19 10:22:20;;;;;;;16.05;11.88;;;15.10;94.00;;;;;;5053467;28;20051;-65
2022/04/19 10:24:48;;;;;;;17.90;11.55;;;15.20;93.70;;;;;;5071090;28;20052;-66
2022/04/19 10:27:15;;;;;;;18.23;12.50;;;15.30;92.00;;;;;;5053967;28;20044;-66
2022/04/19 10:29:43;;;;;;;19.17;10.15;;;15.30;93.60;;;;;;5070781;28;20102;-66
2022/04/19 10:32:11;;;;;;;21.13;11.60;;;15.40;91.60;;;;;;5071127;28;20496;-65
2022/04/19 10:34:40;;;;;;;18.60;9.75;;;15.30;90.40;;;;;;5070695;28;20387;-66
2022/04/19 10:37:15;;;;;;;16.40;9.75;;;15.00;89.40;;;;;;5070503;28;20055;-66
2022/04/19 10:39:57;;;;;;;18.17;10.32;;;14.90;90.00;;;;;;5070005;28;20055;-65
2022/04/19 10:42:34;;;;;;;21.80;11.23;;;15.00;91.70;;;;;;5070169;28;20040;-66
2022/04/19 10:45:14;;;;;;;19.77;11.55;;;15.00;90.80;;;;;;5069044;28;20044;-67
2022/04/19 10:47:53;;;;;;;22.65;13.35;;;15.10;92.20;;;;;;5070185;28;20135;-66
2022/04/19 10:50:28;;;;;;;17.25;10.68;;;15.10;90.60;;;;;;5070340;28;20139;-66
2022/04/19 10:53:08;;;;;;;22.70;11.75;;;15.20;90.70;;;;;;5069357;28;20087;-66
2022/04/19 10:55:58;;;;;;;25.42;10.80;;;15.20;91.50;;;;;;5070311;28;20083;-66
2022/04/19 10:58:38;;;;;;;17.20;10.52;;;15.40;91.50;;;;;;5050682;28;20483;-67
2022/04/19 11:01:07;;;;;;;17.27;10.77;;;15.50;87.20;;;;;;5072033;28;20051;-68
2022/04/19 11:03:49;;;;;;;21.45;14.45;;;15.50;89.30;;;;;;5083080;28;20051;-68
2022/04/19 11:06:31;;;;;;;17.90;11.38;;;15.60;87.70;;;;;;5068632;28;20098;-68
2022/04/19 11:09:16;;;;;;;21.98;9.70;;;15.50;87.80;;;;;;5071675;28;20079;-69
2022/04/19 11:11:44;;;;;;;19.92;10.85;;;15.70;90.60;;;;;;5069942;28;20157;-67
2022/04/19 11:14:29;;;;;;;17.95;9.93;;;15.80;88.90;;;;;;5070856;28;20441;-66
2022/04/19 11:17:20;;;;;;;26.05;10.40;;;15.90;88.60;;;;;;5070682;28;20045;-68
2022/04/19 11:19:57;;;;;;;19.23;10.43;;;16.00;88.00;;;;;;5069964;28;20048;-66
2022/04/19 11:22:29;;;;;;;21.35;10.38;;;16.00;87.40;;;;;;5071465;28;20122;-71
2022/04/19 11:25:06;;;;;;;20.85;10.75;;;16.00;88.30;;;;;;5070269;28;20051;-65
2022/04/19 11:27:53;;;;;;;17.55;10.48;;;16.00;90.20;;;;;;5070054;28;20048;-63
2022/04/19 11:30:24;;;;;;;14.65;10.55;;;15.90;90.40;;;;;;5069171;28;20417;-73
2022/04/19 11:32:53;;;;;;;14.95;9.75;;;15.70;91.00;;;;;;5057617;28;20052;-72
2022/04/19 11:35:20;;;;;;;17.85;11.50;;;15.70;91.90;;;;;;5069812;28;20056;-68
2022/04/19 11:37:47;;;;;;;20.73;11.10;;;15.70;92.50;;;;;;5072326;28;20052;-75
2022/04/19 11:48:48;;;;;;;16.25;11.40;;;16.10;91.50;;;;;;5073886;28;20052;-68
2022/04/19 11:51:17;;;;;;;17.58;10.52;;;16.00;91.50;;;;;;5073840;28;20049;-70
2022/04/19 11:53:44;;;;;;;18.65;10.90;;;16.10;92.30;;;;;;5073948;28;20051;-70
2022/04/19 11:56:11;;;;;;;17.95;11.25;;;16.30;91.70;;;;;;5072484;28;20048;-69
2022/04/19 11:58:41;;;;;;;16.52;11.27;;;16.60;92.80;;;;;;5072826;28;20049;-70
2022/04/19 12:01:09;;;;;;;16.48;11.43;;;16.70;91.20;;;;;;5074083;28;20476;-70
2022/04/19 12:03:37;;;;;;;23.60;16.52;;;16.90;90.40;;;;;;5073061;28;20040;-70
2022/04/19 12:06:11;;;;;;;16.88;12.52;;;16.80;90.30;;;;;;5070465;28;20055;-72
2022/04/19 12:08:40;;;;;;;15.73;9.88;;;16.80;88.70;;;;;;5069831;28;20130;-70
2022/04/19 12:11:26;;;;;;;16.70;12.25;;;16.80;90.00;;;;;;5072363;28;20048;-73
2022/04/19 12:13:53;;;;;;;13.77;9.50;;;16.80;89.70;;;;;;5055356;28;20063;-73
2022/04/19 12:16:29;;;;;;;15.57;10.05;;;16.90;88.40;;;;;;5067974;28;20041;-73
2022/04/19 12:19:00;;;;;;;15.93;9.30;;;17.00;85.60;;;;;;5068739;28;20045;-69
2022/04/19 12:21:43;;;;;;;14.50;9.45;;;17.00;86.20;;;;;;5071582;28;20045;-71
2022/04/19 12:24:23;;;;;;;16.83;10.00;;;17.10;82.50;;;;;;5070100;28;20834;-72
2022/04/19 12:26:51;;;;;;;9.48;7.05;;;17.10;82.00;;;;;;5045308;28;20053;-73
2022/04/19 12:29:18;;;;;;;12.18;8.65;;;17.10;81.70;;;;;;5072513;28;20045;-75
2022/04/19 12:31:47;;;;;;;15.50;8.63;;;17.00;82.00;;;;;;5072458;28;20052;-72
2022/04/19 12:34:15;;;;;;;12.68;7.22;;;17.00;83.00;;;;;;5072157;28;20402;-78
2022/04/19 12:36:49;;;;;;;10.82;7.53;;;17.20;81.70;;;;;;5072891;28;20052;-72
2022/04/19 12:39:21;;;;;;;13.02;7.55;;;17.10;80.90;;;;;;5071758;28;20056;-70
2022/04/19 12:41:49;;;;;;;12.60;5.68;;;17.10;78.70;;;;;;5072717;28;20068;-77
2022/04/19 12:44:18;;;;;;;9.73;4.97;;;17.10;76.40;;;;;;5072598;28;20119;-75
2022/04/19 12:46:48;;;;;;;9.50;5.57;;;17.00;73.90;;;;;;5071555;28;20040;-70
2022/04/19 12:49:29;;;;;;;12.43;6.43;;;17.10;74.20;;;;;;5068233;28;20123;-72
2022/04/19 12:52:06;;;;;;;9.07;5.68;;;17.10;76.20;;;;;;5072322;28;20075;-70
2022/04/19 12:54:35;;;;;;;11.80;6.43;;;17.10;76.60;;;;;;5070604;28;20052;-70
2022/04/19 12:57:03;;;;;;;13.30;6.22;;;17.30;77.80;;;;;;5071692;28;20037;-76
2022/04/19 12:59:33;;;;;;;13.73;6.60;;;17.30;77.50;;;;;;5071153;28;20049;-78
2022/04/19 13:02:00;;;;;;;12.27;6.18;;;17.50;75.70;;;;;;5071706;28;20049;-74
2022/04/19 13:04:27;;;;;;;13.85;5.32;;;17.70;75.30;;;;;;5070435;28;20123;-78
2022/04/19 13:12:26;;;;;;;6.05;4.50;;;17.80;70.00;;;;;;5071586;28;20048;-74
2022/04/19 13:14:58;;;;;;;6.78;3.88;;;17.70;69.80;;;;;;5071082;28;20068;-76
2022/04/19 13:17:26;;;;;;;6.88;4.47;;;17.70;67.80;;;;;;5072028;28;20045;-72
2022/04/19 13:19:53;;;;;;;8.30;4.95;;;17.60;69.30;;;;;;5071461;28;20056;-70
2022/04/19 13:22:21;;;;;;;10.63;5.43;;;17.40;69.80;;;;;;5071529;28;20131;-70
2022/04/19 13:24:50;;;;;;;272.83;227.15;;;17.50;70.40;;;;;;5070311;28;20094;-70
2022/04/19 13:27:17;;;;;;;21.05;17.40;;;17.60;71.50;;;;;;5072120;28;20123;-71
2022/04/19 13:29:44;;;;;;;14.30;7.68;;;17.50;71.70;;;;;;5071485;28;20128;-70
2022/04/19 13:32:12;;;;;;;8.48;6.28;;;17.50;72.20;;;;;;5071246;28;20102;-69
2022/04/19 13:34:39;;;;;;;13.27;4.75;;;17.60;71.80;;;;;;5072274;28;20044;-68
2022/04/19 13:37:09;;;;;;;9.80;5.32;;;17.70;72.00;;;;;;5070808;28;20127;-70
2022/04/19 13:39:36;;;;;;;9.25;4.70;;;18.00;70.90;;;;;;5070593;28;20055;-70
2022/04/19 13:42:03;;;;;;;10.05;5.10;;;17.90;68.50;;;;;;5053304;28;20037;-69